createdAt,value
2023-03-11T00:02:04.966Z,1.15
2023-03-11T00:04:52.517Z,0.93
2023-03-11T00:07:40.097Z,0.90
2023-03-11T00:10:32.576Z,1.15
2023-03-11T00:13:19.805Z,1.10
2023-03-11T00:16:07.579Z,1.20
2023-03-11T00:18:54.638Z,1.30
2023-03-11T00:21:41.917Z,1.10
2023-03-11T00:24:29.074Z,1.00
2023-03-11T00:27:16.209Z,1.30
2023-03-11T00:30:04.036Z,1.20
2023-03-11T00:32:53.671Z,1.20
2023-03-11T00:35:41.189Z,1.20
2023-03-11T00:38:28.171Z,1.40
2023-03-11T00:41:15.466Z,1.22
2023-03-11T00:44:03.118Z,1.20
2023-03-11T00:46:52.751Z,1.10
2023-03-11T00:49:40.150Z,1.20
2023-03-11T00:52:28.777Z,0.90
2023-03-11T00:55:19.126Z,1.17
2023-03-11T00:58:07.981Z,0.82
2023-03-11T01:00:55.206Z,1.27
2023-03-11T01:03:43.438Z,1.10
2023-03-11T01:06:43.157Z,0.80
2023-03-11T01:09:19.580Z,1.22
2023-03-11T01:12:06.733Z,1.10
2023-03-11T01:14:54.110Z,1.00
2023-03-11T01:17:41.318Z,0.95
2023-03-11T01:20:28.691Z,0.80
2023-03-11T01:23:18.760Z,1.47
2023-03-11T01:26:05.973Z,0.93
2023-03-11T01:28:53.254Z,1.10
2023-03-11T01:31:43.503Z,1.05
2023-03-11T01:34:30.828Z,1.15
2023-03-11T01:37:23.825Z,1.12
2023-03-11T01:40:14.048Z,1.30
2023-03-11T01:43:02.441Z,1.00
2023-03-11T01:45:55.517Z,0.93
2023-03-11T01:48:48.400Z,1.27
2023-03-11T01:51:38.829Z,1.30
2023-03-11T01:54:34.607Z,1.00
2023-03-11T01:57:22.452Z,1.82
2023-03-11T02:00:12.190Z,1.10
2023-03-11T02:03:02.130Z,1.10
2023-03-11T02:05:52.162Z,1.27
2023-03-11T02:08:41.827Z,1.50
2023-03-11T02:11:31.473Z,1.75
2023-03-11T02:14:18.931Z,1.10
2023-03-11T02:17:06.785Z,1.35
2023-03-11T02:20:25.260Z,1.62
2023-03-11T02:23:15.047Z,1.30
2023-03-11T02:26:14.603Z,1.40
2023-03-11T02:31:59.165Z,1.42
2023-03-11T02:34:50.566Z,1.15
2023-03-11T02:37:38.267Z,1.12
2023-03-11T02:40:30.408Z,1.12
2023-03-11T02:43:21.093Z,1.47
2023-03-11T02:46:11.605Z,1.15
2023-03-11T02:49:00.552Z,1.00
2023-03-11T02:51:47.664Z,1.27
2023-03-11T02:54:34.660Z,1.22
2023-03-11T02:57:21.767Z,1.40
2023-03-11T03:00:11.072Z,1.25
2023-03-11T03:02:58.571Z,1.07
2023-03-11T03:05:45.915Z,0.90
2023-03-11T03:08:33.096Z,1.00
2023-03-11T03:11:22.427Z,1.22
2023-03-11T03:14:09.729Z,1.55
2023-03-11T03:16:57.282Z,1.10
2023-03-11T03:19:44.791Z,1.60
2023-03-11T03:22:32.088Z,1.12
2023-03-11T03:25:19.546Z,1.12
2023-03-11T03:28:09.156Z,1.20
2023-03-11T03:30:56.198Z,1.50
2023-03-11T03:33:43.572Z,1.50
2023-03-11T03:36:31.355Z,1.52
2023-03-11T03:39:19.919Z,1.30
2023-03-11T03:42:07.413Z,1.60
2023-03-11T03:44:54.615Z,1.72
2023-03-11T03:47:41.878Z,1.90
2023-03-11T03:50:29.245Z,1.80
2023-03-11T03:53:16.887Z,1.60
2023-03-11T03:56:12.455Z,1.90
2023-03-11T03:58:59.564Z,1.92
2023-03-11T04:01:46.962Z,2.10
2023-03-11T04:04:34.470Z,1.52
2023-03-11T04:07:21.761Z,1.80
2023-03-11T04:10:09.365Z,1.60
2023-03-11T04:12:56.405Z,1.57
2023-03-11T04:15:43.611Z,1.62
2023-03-11T04:18:34.460Z,1.70
2023-03-11T04:21:21.647Z,1.60
2023-03-11T04:24:09.257Z,1.77
2023-03-11T04:26:56.716Z,1.98
2023-03-11T04:29:43.807Z,1.70
2023-03-11T04:32:31.217Z,1.80
2023-03-11T04:35:18.880Z,1.90
2023-03-11T04:38:06.066Z,1.77
2023-03-11T04:40:53.434Z,1.80
2023-03-11T04:43:40.840Z,1.85
2023-03-11T04:46:28.207Z,1.75
2023-03-11T04:49:15.554Z,1.67
2023-03-11T04:52:03.039Z,1.95
2023-03-11T04:54:50.075Z,1.82
2023-03-11T04:57:37.377Z,2.22
2023-03-11T05:00:27.353Z,2.20
2023-03-11T05:03:15.987Z,2.10
2023-03-11T05:06:03.474Z,1.92
2023-03-11T05:08:51.147Z,2.10
2023-03-11T05:11:38.194Z,2.20
2023-03-11T05:14:25.677Z,1.87
2023-03-11T05:17:14.841Z,2.15
2023-03-11T05:20:02.099Z,2.25
2023-03-11T05:22:49.550Z,2.10
2023-03-11T05:25:36.900Z,1.90
2023-03-11T05:28:24.247Z,2.42
2023-03-11T05:31:12.180Z,1.87
2023-03-11T05:33:59.398Z,2.12
2023-03-11T05:36:46.918Z,1.87
2023-03-11T05:39:34.789Z,2.10
2023-03-11T05:42:22.313Z,1.77
2023-03-11T05:45:10.477Z,2.02
2023-03-11T05:47:57.556Z,2.00
2023-03-11T05:50:44.659Z,2.05
2023-03-11T05:53:32.104Z,1.95
2023-03-11T05:56:22.314Z,2.20
2023-03-11T05:59:10.758Z,2.00
2023-03-11T06:01:57.819Z,2.00
2023-03-11T06:04:45.399Z,2.00
2023-03-11T06:07:32.386Z,1.90
2023-03-11T06:10:19.488Z,2.60
2023-03-11T06:13:07.029Z,1.92
2023-03-11T06:15:54.178Z,2.20
2023-03-11T06:18:41.573Z,2.25
2023-03-11T06:21:28.922Z,2.27
2023-03-11T06:24:16.140Z,2.85
2023-03-11T06:27:03.345Z,2.10
2023-03-11T06:29:54.799Z,2.12
2023-03-11T06:32:43.511Z,2.00
2023-03-11T06:35:30.789Z,1.72
2023-03-11T06:38:17.885Z,2.00
2023-03-11T06:41:07.157Z,2.40
2023-03-11T06:43:54.382Z,2.33
2023-03-11T06:46:41.828Z,2.20
2023-03-11T06:49:28.886Z,2.40
2023-03-11T06:52:16.414Z,2.33
2023-03-11T06:55:04.107Z,1.90
2023-03-11T06:57:51.488Z,1.98
2023-03-11T07:00:38.476Z,1.98
2023-03-11T07:03:25.797Z,2.20
2023-03-11T07:06:18.317Z,1.80
2023-03-11T07:09:08.798Z,1.67
2023-03-11T07:11:56.317Z,1.90
2023-03-11T07:14:43.308Z,1.87
2023-03-11T07:17:30.783Z,2.00
2023-03-11T07:20:19.028Z,1.77
2023-03-11T07:23:10.572Z,1.98
2023-03-11T07:25:58.217Z,1.98
2023-03-11T07:28:45.580Z,1.98
2023-03-11T07:31:35.026Z,2.20
2023-03-11T07:34:22.110Z,2.10
2023-03-11T07:37:09.412Z,1.70
2023-03-11T07:39:56.747Z,1.80
2023-03-11T07:42:44.004Z,2.17
2023-03-11T07:45:31.268Z,2.20
2023-03-11T07:48:19.606Z,1.80
2023-03-11T07:51:13.419Z,2.17
2023-03-11T07:54:04.801Z,2.12
2023-03-11T07:56:52.030Z,2.12
2023-03-11T07:59:39.522Z,2.22
2023-03-11T08:02:27.016Z,1.90
2023-03-11T08:05:14.458Z,2.37
2023-03-11T08:08:01.766Z,1.90
2023-03-11T08:10:48.567Z,2.08
2023-03-11T08:13:36.052Z,2.00
2023-03-11T08:16:27.007Z,1.60
2023-03-11T08:19:14.972Z,2.05
2023-03-11T08:22:04.471Z,1.82
2023-03-11T08:24:53.121Z,1.50
2023-03-11T08:27:40.416Z,1.95
2023-03-11T08:30:27.749Z,1.90
2023-03-11T08:33:14.880Z,1.62
2023-03-11T08:36:02.403Z,1.27
2023-03-11T08:38:50.013Z,1.70
2023-03-11T08:41:37.691Z,1.70
2023-03-11T08:44:24.728Z,1.37
2023-03-11T08:47:11.929Z,1.52
2023-03-11T08:49:59.211Z,1.65
2023-03-11T08:52:46.903Z,1.40
2023-03-11T08:55:34.661Z,1.60
2023-03-11T08:58:22.007Z,1.47
2023-03-11T09:01:09.834Z,1.50
2023-03-11T09:03:56.951Z,1.30
2023-03-11T09:06:46.407Z,1.60
2023-03-11T09:09:33.761Z,1.22
2023-03-11T09:12:21.601Z,1.40
2023-03-11T09:15:09.357Z,2.20
2023-03-11T09:17:56.845Z,1.50
2023-03-11T09:20:44.721Z,1.35
2023-03-11T09:23:34.197Z,1.10
2023-03-11T09:26:21.879Z,1.30
2023-03-11T09:29:09.284Z,1.17
2023-03-11T09:31:56.754Z,1.00
2023-03-11T09:34:44.207Z,1.72
2023-03-11T09:37:31.994Z,1.40
2023-03-11T09:40:24.091Z,1.10
2023-03-11T09:43:32.684Z,1.02
2023-03-11T09:46:29.007Z,1.25
2023-03-11T09:49:53.669Z,1.20
2023-03-11T09:53:13.870Z,1.10
2023-03-11T09:56:02.139Z,1.10
2023-03-11T09:58:52.504Z,1.27
2023-03-11T10:01:48.471Z,1.30
2023-03-11T10:04:47.422Z,0.90
2023-03-11T10:07:43.169Z,0.80
2023-03-11T10:10:32.656Z,0.80
2023-03-11T10:13:23.616Z,0.70
2023-03-11T10:16:22.475Z,0.85
2023-03-11T10:19:18.760Z,0.90
2023-03-11T10:22:37.253Z,0.57
2023-03-11T10:25:33.299Z,0.90
2023-03-11T10:28:23.719Z,0.72
2023-03-11T10:31:31.954Z,0.90
2023-03-11T10:34:40.180Z,1.20
2023-03-11T10:37:49.379Z,1.12
2023-03-11T10:40:39.016Z,1.22
2023-03-11T10:43:34.647Z,1.20
2023-03-11T10:46:25.464Z,1.05
2023-03-11T10:49:17.391Z,0.70
2023-03-11T10:52:04.798Z,0.90
2023-03-11T10:55:00.969Z,1.10
2023-03-11T10:57:48.291Z,0.90
2023-03-11T11:00:35.747Z,1.20
2023-03-11T11:03:24.984Z,0.85
2023-03-11T11:06:27.417Z,0.70
2023-03-11T11:09:20.177Z,1.05
2023-03-11T11:12:18.615Z,1.20
2023-03-11T11:15:06.038Z,0.93
2023-03-11T11:17:55.638Z,0.90
2023-03-11T11:20:46.188Z,1.05
2023-03-11T11:23:42.322Z,1.02
2023-03-11T11:26:29.391Z,0.80
2023-03-11T11:29:16.761Z,1.00
2023-03-11T11:32:18.001Z,0.90
2023-03-11T11:35:07.990Z,1.05
2023-03-11T11:37:58.673Z,0.80
2023-03-11T11:40:46.363Z,1.10
2023-03-11T11:43:54.009Z,1.20
2023-03-11T11:49:51.137Z,1.02
2023-03-11T11:52:59.600Z,1.00
2023-03-11T11:55:52.622Z,1.10
2023-03-11T11:58:41.666Z,1.22
2023-03-11T12:01:40.191Z,1.30
2023-03-11T12:04:39.433Z,1.10
2023-03-11T12:07:35.650Z,0.90
2023-03-11T12:10:31.656Z,1.02
2023-03-11T12:13:33.020Z,1.02
2023-03-11T12:16:23.522Z,1.40
2023-03-11T12:19:22.504Z,1.22
2023-03-11T12:22:15.509Z,1.32
2023-03-11T12:25:33.334Z,1.17
2023-03-11T12:28:23.688Z,0.98
2023-03-11T12:31:12.832Z,1.00
2023-03-11T12:34:03.192Z,0.95
2023-03-11T12:36:51.792Z,1.25
2023-03-11T12:39:39.055Z,1.10
2023-03-11T12:42:29.533Z,1.00
2023-03-11T12:45:50.739Z,1.00
2023-03-11T12:48:43.463Z,1.07
2023-03-11T12:51:37.610Z,1.07
2023-03-11T12:54:47.892Z,1.05
2023-03-11T12:57:53.426Z,1.10
2023-03-11T13:00:49.038Z,0.90
2023-03-11T13:03:43.010Z,0.90
2023-03-11T13:06:39.509Z,1.05
2023-03-11T13:09:26.874Z,1.25
2023-03-11T13:12:42.636Z,1.00
2023-03-11T13:15:37.755Z,1.00
2023-03-11T13:18:33.352Z,1.02
2023-03-11T13:21:32.875Z,1.17
2023-03-11T13:24:24.965Z,1.00
2023-03-11T13:27:15.180Z,0.93
2023-03-11T13:30:14.292Z,1.15
2023-03-11T13:33:22.140Z,1.10
2023-03-11T13:36:27.536Z,0.80
2023-03-11T13:39:29.968Z,0.80
2023-03-11T13:42:29.205Z,0.90
2023-03-11T13:45:36.291Z,0.90
2023-03-11T13:48:31.929Z,1.22
2023-03-11T13:51:25.161Z,1.00
2023-03-11T13:54:22.554Z,0.90
2023-03-11T13:57:19.239Z,0.95
2023-03-11T14:00:18.299Z,1.27
2023-03-11T14:03:08.898Z,0.90
2023-03-11T14:06:04.485Z,1.00
2023-03-11T14:08:56.340Z,1.40
2023-03-11T14:11:45.768Z,0.80
2023-03-11T14:14:56.142Z,0.95
2023-03-11T14:17:43.420Z,1.17
2023-03-11T14:20:30.559Z,1.20
2023-03-11T14:23:19.980Z,0.85
2023-03-11T14:26:09.989Z,0.90
2023-03-11T14:29:00.380Z,1.20
2023-03-11T14:31:48.699Z,0.90
2023-03-11T14:34:39.049Z,1.10
2023-03-11T14:37:34.868Z,1.17
2023-03-11T14:40:33.977Z,1.20
2023-03-11T14:43:22.075Z,0.90
2023-03-11T14:46:11.663Z,0.98
2023-03-11T14:48:59.396Z,1.00
2023-03-11T14:51:49.248Z,0.90
2023-03-11T14:54:37.866Z,1.57
2023-03-11T14:57:30.815Z,1.17
2023-03-11T15:00:21.305Z,1.00
2023-03-11T15:03:14.107Z,0.90
2023-03-11T15:06:04.615Z,1.00
2023-03-11T15:08:54.796Z,1.00
2023-03-11T15:11:55.462Z,0.80
2023-03-11T15:14:52.803Z,0.88
2023-03-11T15:20:36.737Z,0.98
2023-03-11T15:23:24.518Z,1.22
2023-03-11T15:26:31.582Z,0.85
2023-03-11T15:29:19.108Z,0.80
2023-03-11T15:32:31.615Z,0.80
2023-03-11T15:35:29.937Z,1.10
2023-03-11T15:38:25.688Z,0.90
2023-03-11T15:41:14.734Z,0.78
2023-03-11T15:44:03.587Z,0.90
2023-03-11T15:46:54.291Z,1.95
2023-03-11T15:49:41.438Z,1.10
2023-03-11T15:52:28.695Z,0.70
2023-03-11T15:55:16.150Z,0.82
2023-03-11T15:58:06.302Z,0.98
2023-03-11T16:00:56.573Z,0.75
2023-03-11T16:03:43.881Z,0.90
2023-03-11T16:06:31.031Z,1.22
2023-03-11T16:09:18.480Z,1.32
2023-03-11T16:12:20.524Z,0.90
2023-03-11T16:15:10.122Z,1.50
2023-03-11T16:17:59.751Z,2.45
2023-03-11T16:20:52.847Z,1.65
2023-03-11T16:23:51.188Z,1.10
2023-03-11T16:26:30.378Z,0.80
2023-03-11T16:29:20.000Z,1.00
2023-03-11T16:32:08.786Z,0.80
2023-03-11T16:34:56.213Z,1.40
2023-03-11T16:37:43.642Z,1.00
2023-03-11T16:40:32.635Z,1.50
2023-03-11T16:43:19.846Z,1.07
2023-03-11T16:46:07.305Z,0.90
2023-03-11T16:48:54.589Z,1.00
2023-03-11T16:51:41.678Z,1.27
2023-03-11T16:54:28.705Z,1.87
2023-03-11T16:57:16.094Z,1.45
2023-03-11T17:00:04.485Z,0.80
2023-03-11T17:02:52.726Z,1.50
2023-03-11T17:05:40.234Z,1.00
2023-03-11T17:08:27.301Z,1.07
2023-03-11T17:11:21.058Z,1.02
2023-03-11T17:14:16.314Z,1.10
2023-03-11T17:16:57.084Z,1.10
2023-03-11T17:19:44.583Z,1.10
2023-03-11T17:22:32.373Z,1.02
2023-03-11T17:25:20.178Z,1.00
2023-03-11T17:28:07.835Z,1.00
2023-03-11T17:30:55.592Z,1.00
2023-03-11T17:33:43.641Z,0.90
2023-03-11T17:36:30.961Z,0.98
2023-03-11T17:39:18.243Z,0.93
2023-03-11T17:42:06.126Z,1.17
2023-03-11T17:44:57.890Z,1.27
2023-03-11T17:47:45.272Z,1.25
2023-03-11T17:50:32.555Z,1.12
2023-03-11T17:53:20.362Z,1.22
2023-03-11T17:56:08.513Z,1.87
2023-03-11T17:58:55.886Z,1.70
2023-03-11T18:01:43.911Z,1.65
2023-03-11T18:04:31.157Z,1.50
2023-03-11T18:07:18.938Z,1.62
2023-03-11T18:10:07.586Z,1.30
2023-03-11T18:12:54.705Z,1.30
2023-03-11T18:15:41.986Z,1.85
2023-03-11T18:18:30.658Z,2.10
2023-03-11T18:21:23.561Z,1.50
2023-03-11T18:24:10.787Z,1.15
2023-03-11T18:26:58.244Z,1.67
2023-03-11T18:29:45.904Z,1.80
2023-03-11T18:32:33.344Z,1.75
2023-03-11T18:35:21.604Z,1.77
2023-03-11T18:38:08.772Z,2.10
2023-03-11T18:40:59.093Z,2.02
2023-03-11T18:43:46.285Z,2.60
2023-03-11T18:46:33.642Z,2.72
2023-03-11T18:49:20.975Z,2.50
2023-03-11T18:52:08.937Z,2.50
2023-03-11T18:54:56.232Z,2.15
2023-03-11T18:57:43.410Z,2.60
2023-03-11T19:00:31.066Z,2.47
2023-03-11T19:03:18.133Z,2.47
2023-03-11T19:06:06.154Z,2.70
2023-03-11T19:08:54.291Z,2.77
2023-03-11T19:11:41.535Z,3.27
2023-03-11T19:14:29.053Z,3.05
2023-03-11T19:17:18.257Z,2.67
2023-03-11T19:20:08.241Z,3.17
2023-03-11T19:22:58.412Z,3.00
2023-03-11T19:26:00.716Z,3.00
2023-03-11T19:28:34.686Z,3.22
2023-03-11T19:31:22.215Z,3.02
2023-03-11T19:34:09.787Z,2.95
2023-03-11T19:36:58.643Z,2.92
2023-03-11T19:39:45.846Z,3.02
2023-03-11T19:42:34.545Z,2.47
2023-03-11T19:45:21.578Z,2.67
2023-03-11T19:48:10.460Z,2.50
2023-03-11T19:50:58.528Z,2.50
2023-03-11T19:53:47.029Z,2.83
2023-03-11T19:56:34.313Z,2.60
2023-03-11T19:59:21.892Z,2.25
2023-03-11T20:02:11.669Z,2.95
2023-03-11T20:04:59.215Z,3.27
2023-03-11T20:07:46.650Z,3.00
2023-03-11T20:10:34.714Z,3.33
2023-03-11T20:13:23.194Z,3.12
2023-03-11T20:16:13.371Z,2.87
2023-03-11T20:19:01.271Z,2.62
2023-03-11T20:21:48.372Z,2.62
2023-03-11T20:24:35.734Z,2.58
2023-03-11T20:27:23.098Z,2.72
2023-03-11T20:30:11.342Z,2.77
2023-03-11T20:32:58.423Z,2.67
2023-03-11T20:35:45.741Z,3.08
2023-03-11T20:38:32.825Z,2.65
2023-03-11T20:41:23.113Z,3.25
2023-03-11T20:44:13.066Z,3.08
2023-03-11T20:47:00.406Z,3.02
2023-03-11T20:49:47.742Z,2.70
2023-03-11T20:52:35.729Z,3.05
2023-03-11T20:55:23.136Z,2.70
2023-03-11T20:58:10.589Z,3.12
2023-03-11T21:00:59.644Z,3.30
2023-03-11T21:03:47.376Z,2.95
2023-03-11T21:06:37.420Z,3.00
2023-03-11T21:09:25.415Z,2.73
2023-03-11T21:12:12.780Z,2.58
2023-03-11T21:15:02.872Z,2.17
2023-03-11T21:17:50.155Z,2.55
2023-03-11T21:20:37.977Z,2.33
2023-03-11T21:23:26.718Z,2.67
2023-03-11T21:26:15.409Z,2.90
2023-03-11T21:29:03.024Z,2.40
2023-03-11T21:31:50.338Z,3.02
2023-03-11T21:34:37.320Z,3.45
2023-03-11T21:37:24.789Z,3.10
2023-03-11T21:40:13.044Z,2.75
2023-03-11T21:43:00.633Z,3.05
2023-03-11T21:45:48.075Z,2.62
2023-03-11T21:48:35.800Z,2.95
2023-03-11T21:51:23.316Z,3.37
2023-03-11T21:54:12.126Z,2.70
2023-03-11T21:56:59.397Z,3.00
2023-03-11T21:59:46.738Z,3.37
2023-03-11T22:02:33.709Z,2.90
2023-03-11T22:05:20.846Z,2.60
2023-03-11T22:08:08.111Z,2.62
2023-03-11T22:10:56.052Z,2.90
2023-03-11T22:13:45.281Z,2.90
2023-03-11T22:16:32.664Z,3.12
2023-03-11T22:19:20.511Z,3.45
2023-03-11T22:22:07.567Z,3.02
2023-03-11T22:24:55.028Z,3.72
2023-03-11T22:27:42.373Z,3.75
2023-03-11T22:30:29.587Z,3.50
2023-03-11T22:33:17.146Z,3.40
2023-03-11T22:36:06.442Z,3.00
2023-03-11T22:38:53.818Z,3.20
2023-03-11T22:41:40.985Z,3.30
2023-03-11T22:44:28.837Z,3.37
2023-03-11T22:47:16.191Z,3.50
2023-03-11T22:50:03.483Z,3.25
2023-03-11T22:52:50.726Z,2.87
2023-03-11T22:55:42.427Z,3.60
2023-03-11T22:58:29.554Z,3.42
2023-03-11T23:01:16.982Z,3.65
2023-03-11T23:04:04.143Z,2.90
2023-03-11T23:06:53.213Z,3.17
2023-03-11T23:09:42.729Z,3.10
2023-03-11T23:12:30.126Z,2.85
2023-03-11T23:15:19.552Z,2.65
2023-03-11T23:18:06.785Z,2.52
2023-03-11T23:20:54.336Z,2.65
2023-03-11T23:23:41.697Z,3.08
2023-03-11T23:26:30.584Z,2.87
2023-03-11T23:29:18.241Z,2.55
2023-03-11T23:32:06.558Z,3.00
2023-03-11T23:34:53.671Z,3.20
2023-03-11T23:37:41.126Z,2.98
2023-03-11T23:40:28.009Z,2.95
2023-03-11T23:43:14.947Z,2.92
2023-03-11T23:46:02.702Z,3.10
2023-03-11T23:48:49.872Z,3.33
2023-03-11T23:51:37.310Z,3.33
2023-03-11T23:54:24.051Z,2.77
2023-03-11T23:57:11.298Z,3.33
2023-03-11T23:59:58.753Z,3.00
